sensor_id;sensor_type;location;lat;lon;timestamp;P1;durP1;ratioP1;P2;durP2;ratioP2
76035;SDS011;64732;56.314;44.068;2023-09-30T00:01:53;17.85;;;8.20;;
76035;SDS011;64732;56.314;44.068;2023-09-30T00:04:14;13.63;;;8.50;;
76035;SDS011;64732;56.314;44.068;2023-09-30T00:06:35;15.88;;;9.02;;
76035;SDS011;64732;56.314;44.068;2023-09-30T00:08:59;17.27;;;9.07;;
76035;SDS011;64732;56.314;44.068;2023-09-30T00:11:20;18.13;;;9.80;;
76035;SDS011;64732;56.314;44.068;2023-09-30T00:13:41;18.30;;;9.63;;
76035;SDS011;64732;56.314;44.068;2023-09-30T00:16:02;15.10;;;9.70;;
76035;SDS011;64732;56.314;44.068;2023-09-30T00:18:23;16.92;;;9.52;;
76035;SDS011;64732;56.314;44.068;2023-09-30T00:20:44;15.98;;;9.75;;
76035;SDS011;64732;56.314;44.068;2023-09-30T00:23:05;18.50;;;10.13;;
76035;SDS011;64732;56.314;44.068;2023-09-30T00:25:29;18.27;;;11.23;;
76035;SDS011;64732;56.314;44.068;2023-09-30T00:27:50;19.13;;;11.30;;
76035;SDS011;64732;56.314;44.068;2023-09-30T00:30:11;18.20;;;11.50;;
76035;SDS011;64732;56.314;44.068;2023-09-30T00:32:33;17.45;;;10.55;;
76035;SDS011;64732;56.314;44.068;2023-09-30T00:34:56;17.55;;;10.27;;
76035;SDS011;64732;56.314;44.068;2023-09-30T00:37:17;18.13;;;10.30;;
76035;SDS011;64732;56.314;44.068;2023-09-30T00:39:38;16.77;;;9.60;;
76035;SDS011;64732;56.314;44.068;2023-09-30T00:42:02;14.75;;;9.73;;
76035;SDS011;64732;56.314;44.068;2023-09-30T00:44:23;17.42;;;9.98;;
76035;SDS011;64732;56.314;44.068;2023-09-30T00:46:44;15.18;;;9.80;;
76035;SDS011;64732;56.314;44.068;2023-09-30T00:49:05;18.85;;;10.10;;
76035;SDS011;64732;56.314;44.068;2023-09-30T00:51:26;19.40;;;10.00;;
76035;SDS011;64732;56.314;44.068;2023-09-30T00:53:49;15.57;;;9.75;;
76035;SDS011;64732;56.314;44.068;2023-09-30T00:56:11;17.02;;;9.80;;
76035;SDS011;64732;56.314;44.068;2023-09-30T00:58:35;14.35;;;8.85;;
76035;SDS011;64732;56.314;44.068;2023-09-30T01:00:56;14.68;;;8.68;;
76035;SDS011;64732;56.314;44.068;2023-09-30T01:03:18;15.63;;;9.80;;
76035;SDS011;64732;56.314;44.068;2023-09-30T01:05:39;14.77;;;8.98;;
76035;SDS011;64732;56.314;44.068;2023-09-30T01:08:01;19.40;;;9.15;;
76035;SDS011;64732;56.314;44.068;2023-09-30T01:10:22;17.25;;;9.25;;
76035;SDS011;64732;56.314;44.068;2023-09-30T01:12:44;18.20;;;10.27;;
76035;SDS011;64732;56.314;44.068;2023-09-30T01:15:09;15.85;;;9.35;;
76035;SDS011;64732;56.314;44.068;2023-09-30T01:17:30;15.85;;;9.10;;
76035;SDS011;64732;56.314;44.068;2023-09-30T01:19:51;15.85;;;8.85;;
76035;SDS011;64732;56.314;44.068;2023-09-30T01:22:14;14.18;;;8.18;;
76035;SDS011;64732;56.314;44.068;2023-09-30T01:24:39;14.60;;;9.15;;
76035;SDS011;64732;56.314;44.068;2023-09-30T01:27:00;16.55;;;8.50;;
76035;SDS011;64732;56.314;44.068;2023-09-30T01:29:21;15.18;;;9.10;;
76035;SDS011;64732;56.314;44.068;2023-09-30T01:31:42;15.98;;;8.15;;
76035;SDS011;64732;56.314;44.068;2023-09-30T01:34:03;12.98;;;8.35;;
76035;SDS011;64732;56.314;44.068;2023-09-30T01:36:24;13.48;;;8.15;;
76035;SDS011;64732;56.314;44.068;2023-09-30T01:38:48;11.93;;;6.70;;
76035;SDS011;64732;56.314;44.068;2023-09-30T01:41:09;13.93;;;7.60;;
76035;SDS011;64732;56.314;44.068;2023-09-30T01:43:30;12.70;;;7.43;;
76035;SDS011;64732;56.314;44.068;2023-09-30T01:45:51;13.68;;;7.55;;
76035;SDS011;64732;56.314;44.068;2023-09-30T01:48:12;14.27;;;7.00;;
76035;SDS011;64732;56.314;44.068;2023-09-30T01:50:33;13.68;;;6.70;;
76035;SDS011;64732;56.314;44.068;2023-09-30T01:52:54;11.77;;;6.65;;
76035;SDS011;64732;56.314;44.068;2023-09-30T01:55:18;13.57;;;8.10;;
76035;SDS011;64732;56.314;44.068;2023-09-30T01:57:40;12.65;;;7.50;;
76035;SDS011;64732;56.314;44.068;2023-09-30T02:00:01;14.02;;;7.15;;
76035;SDS011;64732;56.314;44.068;2023-09-30T02:02:26;14.52;;;7.30;;
76035;SDS011;64732;56.314;44.068;2023-09-30T02:04:47;15.32;;;7.13;;
76035;SDS011;64732;56.314;44.068;2023-09-30T02:07:08;13.02;;;7.57;;
76035;SDS011;64732;56.314;44.068;2023-09-30T02:09:29;11.40;;;6.78;;
76035;SDS011;64732;56.314;44.068;2023-09-30T02:11:53;13.40;;;7.22;;
76035;SDS011;64732;56.314;44.068;2023-09-30T02:14:14;12.90;;;7.07;;
76035;SDS011;64732;56.314;44.068;2023-09-30T02:16:35;13.45;;;7.57;;
76035;SDS011;64732;56.314;44.068;2023-09-30T02:18:56;13.10;;;6.80;;
76035;SDS011;64732;56.314;44.068;2023-09-30T02:21:18;12.05;;;7.30;;
76035;SDS011;64732;56.314;44.068;2023-09-30T02:23:39;15.43;;;8.18;;
76035;SDS011;64732;56.314;44.068;2023-09-30T02:26:00;16.10;;;7.65;;
76035;SDS011;64732;56.314;44.068;2023-09-30T02:28:24;15.23;;;7.63;;
76035;SDS011;64732;56.314;44.068;2023-09-30T02:30:45;11.98;;;6.90;;
76035;SDS011;64732;56.314;44.068;2023-09-30T02:33:06;26.90;;;9.30;;
76035;SDS011;64732;56.314;44.068;2023-09-30T02:35:27;13.98;;;8.40;;
76035;SDS011;64732;56.314;44.068;2023-09-30T02:37:48;15.48;;;8.55;;
76035;SDS011;64732;56.314;44.068;2023-09-30T02:40:10;17.25;;;8.25;;
76035;SDS011;64732;56.314;44.068;2023-09-30T02:42:31;13.45;;;8.30;;
76035;SDS011;64732;56.314;44.068;2023-09-30T02:44:55;12.02;;;7.35;;
76035;SDS011;64732;56.314;44.068;2023-09-30T02:47:16;16.15;;;8.35;;
76035;SDS011;64732;56.314;44.068;2023-09-30T02:49:37;13.63;;;8.05;;
76035;SDS011;64732;56.314;44.068;2023-09-30T02:51:58;12.40;;;7.45;;
76035;SDS011;64732;56.314;44.068;2023-09-30T02:54:19;19.60;;;10.38;;
76035;SDS011;64732;56.314;44.068;2023-09-30T02:56:40;17.33;;;9.00;;
76035;SDS011;64732;56.314;44.068;2023-09-30T02:59:01;15.68;;;8.50;;
76035;SDS011;64732;56.314;44.068;2023-09-30T03:01:24;18.75;;;9.05;;
76035;SDS011;64732;56.314;44.068;2023-09-30T03:03:45;15.43;;;9.18;;
76035;SDS011;64732;56.314;44.068;2023-09-30T03:06:06;13.23;;;8.02;;
76035;SDS011;64732;56.314;44.068;2023-09-30T03:08:27;15.23;;;8.98;;
76035;SDS011;64732;56.314;44.068;2023-09-30T03:10:48;19.27;;;9.30;;
76035;SDS011;64732;56.314;44.068;2023-09-30T03:13:11;16.25;;;9.15;;
76035;SDS011;64732;56.314;44.068;2023-09-30T03:15:32;18.08;;;8.65;;
76035;SDS011;64732;56.314;44.068;2023-09-30T03:17:56;16.55;;;8.85;;
76035;SDS011;64732;56.314;44.068;2023-09-30T03:20:17;14.95;;;9.15;;
76035;SDS011;64732;56.314;44.068;2023-09-30T03:22:38;18.27;;;8.55;;
76035;SDS011;64732;56.314;44.068;2023-09-30T03:25:00;34.78;;;17.17;;
76035;SDS011;64732;56.314;44.068;2023-09-30T03:27:20;20.77;;;10.02;;
76035;SDS011;64732;56.314;44.068;2023-09-30T03:29:42;16.23;;;8.75;;
76035;SDS011;64732;56.314;44.068;2023-09-30T03:32:03;13.77;;;8.50;;
76035;SDS011;64732;56.314;44.068;2023-09-30T03:34:26;16.08;;;8.73;;
76035;SDS011;64732;56.314;44.068;2023-09-30T03:36:47;16.65;;;8.77;;
76035;SDS011;64732;56.314;44.068;2023-09-30T03:39:08;14.68;;;8.07;;
76035;SDS011;64732;56.314;44.068;2023-09-30T03:41:29;12.48;;;8.38;;
76035;SDS011;64732;56.314;44.068;2023-09-30T03:43:50;17.85;;;9.23;;
76035;SDS011;64732;56.314;44.068;2023-09-30T03:46:11;21.17;;;9.13;;
76035;SDS011;64732;56.314;44.068;2023-09-30T03:48:32;13.85;;;8.25;;
76035;SDS011;64732;56.314;44.068;2023-09-30T03:50:56;15.50;;;8.93;;
76035;SDS011;64732;56.314;44.068;2023-09-30T03:53:17;17.27;;;9.15;;
76035;SDS011;64732;56.314;44.068;2023-09-30T03:55:38;20.27;;;11.10;;
76035;SDS011;64732;56.314;44.068;2023-09-30T03:57:59;20.48;;;8.80;;
76035;SDS011;64732;56.314;44.068;2023-09-30T04:00:20;15.90;;;8.63;;
76035;SDS011;64732;56.314;44.068;2023-09-30T04:02:42;15.00;;;8.25;;
76035;SDS011;64732;56.314;44.068;2023-09-30T04:05:03;15.30;;;8.48;;
76035;SDS011;64732;56.314;44.068;2023-09-30T04:07:27;15.20;;;8.13;;
76035;SDS011;64732;56.314;44.068;2023-09-30T04:09:48;14.88;;;8.43;;
76035;SDS011;64732;56.314;44.068;2023-09-30T04:12:09;12.38;;;8.02;;
76035;SDS011;64732;56.314;44.068;2023-09-30T04:14:30;13.95;;;8.23;;
76035;SDS011;64732;56.314;44.068;2023-09-30T04:16:51;15.00;;;8.68;;
76035;SDS011;64732;56.314;44.068;2023-09-30T04:19:12;15.80;;;8.80;;
76035;SDS011;64732;56.314;44.068;2023-09-30T04:21:33;17.80;;;9.07;;
76035;SDS011;64732;56.314;44.068;2023-09-30T04:23:57;13.82;;;8.00;;
76035;SDS011;64732;56.314;44.068;2023-09-30T04:26:18;16.65;;;8.52;;
76035;SDS011;64732;56.314;44.068;2023-09-30T04:28:39;16.08;;;8.40;;
76035;SDS011;64732;56.314;44.068;2023-09-30T04:31:00;23.58;;;9.32;;
76035;SDS011;64732;56.314;44.068;2023-09-30T04:33:21;14.90;;;7.95;;
76035;SDS011;64732;56.314;44.068;2023-09-30T04:35:42;13.57;;;7.57;;
76035;SDS011;64732;56.314;44.068;2023-09-30T04:38:04;14.63;;;7.93;;
76035;SDS011;64732;56.314;44.068;2023-09-30T04:40:27;12.52;;;7.68;;
76035;SDS011;64732;56.314;44.068;2023-09-30T04:42:48;15.93;;;7.68;;
76035;SDS011;64732;56.314;44.068;2023-09-30T04:45:10;12.48;;;7.70;;
76035;SDS011;64732;56.314;44.068;2023-09-30T04:47:32;13.95;;;7.38;;
76035;SDS011;64732;56.314;44.068;2023-09-30T04:49:53;20.13;;;8.15;;
76035;SDS011;64732;56.314;44.068;2023-09-30T04:52:14;14.57;;;7.22;;
76035;SDS011;64732;56.314;44.068;2023-09-30T04:54:35;12.50;;;7.43;;
76035;SDS011;64732;56.314;44.068;2023-09-30T04:56:59;15.48;;;8.10;;
76035;SDS011;64732;56.314;44.068;2023-09-30T04:59:20;15.13;;;8.57;;
76035;SDS011;64732;56.314;44.068;2023-09-30T05:01:41;14.00;;;8.50;;
76035;SDS011;64732;56.314;44.068;2023-09-30T05:04:02;15.43;;;7.45;;
76035;SDS011;64732;56.314;44.068;2023-09-30T05:06:23;15.73;;;7.68;;
76035;SDS011;64732;56.314;44.068;2023-09-30T05:08:44;15.35;;;7.97;;
76035;SDS011;64732;56.314;44.068;2023-09-30T05:11:05;13.88;;;7.80;;
76035;SDS011;64732;56.314;44.068;2023-09-30T05:13:29;15.55;;;7.25;;
76035;SDS011;64732;56.314;44.068;2023-09-30T05:15:50;14.00;;;7.82;;
76035;SDS011;64732;56.314;44.068;2023-09-30T05:18:11;13.45;;;7.57;;
76035;SDS011;64732;56.314;44.068;2023-09-30T05:20:32;14.77;;;7.70;;
76035;SDS011;64732;56.314;44.068;2023-09-30T05:22:53;12.73;;;7.70;;
76035;SDS011;64732;56.314;44.068;2023-09-30T05:25:14;12.77;;;7.47;;
76035;SDS011;64732;56.314;44.068;2023-09-30T05:27:36;15.20;;;7.53;;
76035;SDS011;64732;56.314;44.068;2023-09-30T05:30:00;12.50;;;7.43;;
76035;SDS011;64732;56.314;44.068;2023-09-30T05:32:21;12.30;;;7.18;;
76035;SDS011;64732;56.314;44.068;2023-09-30T05:34:42;14.82;;;7.90;;
76035;SDS011;64732;56.314;44.068;2023-09-30T05:37:03;13.45;;;7.72;;
76035;SDS011;64732;56.314;44.068;2023-09-30T05:39:24;15.15;;;8.93;;
76035;SDS011;64732;56.314;44.068;2023-09-30T05:41:45;16.23;;;9.15;;
76035;SDS011;64732;56.314;44.068;2023-09-30T05:44:06;15.07;;;7.78;;
76035;SDS011;64732;56.314;44.068;2023-09-30T05:46:30;17.70;;;9.05;;
76035;SDS011;64732;56.314;44.068;2023-09-30T05:48:51;13.00;;;8.23;;
76035;SDS011;64732;56.314;44.068;2023-09-30T05:51:12;15.65;;;8.07;;
76035;SDS011;64732;56.314;44.068;2023-09-30T05:53:33;14.00;;;8.23;;
76035;SDS011;64732;56.314;44.068;2023-09-30T05:55:54;14.82;;;7.85;;
76035;SDS011;64732;56.314;44.068;2023-09-30T05:58:15;14.55;;;8.32;;
76035;SDS011;64732;56.314;44.068;2023-09-30T06:00:36;12.65;;;7.22;;
76035;SDS011;64732;56.314;44.068;2023-09-30T06:03:00;20.08;;;8.40;;
76035;SDS011;64732;56.314;44.068;2023-09-30T06:05:22;19.95;;;10.10;;
76035;SDS011;64732;56.314;44.068;2023-09-30T06:07:43;13.02;;;6.85;;
76035;SDS011;64732;56.314;44.068;2023-09-30T06:10:04;18.42;;;7.63;;
76035;SDS011;64732;56.314;44.068;2023-09-30T06:12:26;14.38;;;8.82;;
76035;SDS011;64732;56.314;44.068;2023-09-30T06:14:47;14.57;;;7.70;;
76035;SDS011;64732;56.314;44.068;2023-09-30T06:17:08;17.92;;;8.98;;
76035;SDS011;64732;56.314;44.068;2023-09-30T06:19:35;14.30;;;8.70;;
76035;SDS011;64732;56.314;44.068;2023-09-30T06:21:56;23.92;;;8.15;;
76035;SDS011;64732;56.314;44.068;2023-09-30T06:24:17;16.27;;;9.07;;
76035;SDS011;64732;56.314;44.068;2023-09-30T06:26:38;15.52;;;8.73;;
76035;SDS011;64732;56.314;44.068;2023-09-30T06:28:59;17.67;;;9.73;;
76035;SDS011;64732;56.314;44.068;2023-09-30T06:31:20;19.10;;;9.07;;
76035;SDS011;64732;56.314;44.068;2023-09-30T06:33:41;16.05;;;8.35;;
76035;SDS011;64732;56.314;44.068;2023-09-30T06:36:07;17.73;;;9.15;;
76035;SDS011;64732;56.314;44.068;2023-09-30T06:38:28;19.48;;;8.35;;
76035;SDS011;64732;56.314;44.068;2023-09-30T06:40:50;19.45;;;8.68;;
76035;SDS011;64732;56.314;44.068;2023-09-30T06:43:11;15.10;;;8.63;;
76035;SDS011;64732;56.314;44.068;2023-09-30T06:45:32;19.33;;;8.13;;
76035;SDS011;64732;56.314;44.068;2023-09-30T06:47:53;14.13;;;8.80;;
76035;SDS011;64732;56.314;44.068;2023-09-30T06:50:14;13.88;;;8.25;;
76035;SDS011;64732;56.314;44.068;2023-09-30T06:52:38;14.50;;;8.68;;
76035;SDS011;64732;56.314;44.068;2023-09-30T06:55:01;16.73;;;9.32;;
76035;SDS011;64732;56.314;44.068;2023-09-30T06:57:22;17.98;;;8.95;;
76035;SDS011;64732;56.314;44.068;2023-09-30T06:59:43;19.65;;;9.55;;
76035;SDS011;64732;56.314;44.068;2023-09-30T07:02:04;18.42;;;9.55;;
76035;SDS011;64732;56.314;44.068;2023-09-30T07:04:26;23.58;;;12.45;;
76035;SDS011;64732;56.314;44.068;2023-09-30T07:06:50;15.30;;;9.13;;
76035;SDS011;64732;56.314;44.068;2023-09-30T07:09:14;20.15;;;9.80;;
76035;SDS011;64732;56.314;44.068;2023-09-30T07:11:35;19.85;;;10.77;;
76035;SDS011;64732;56.314;44.068;2023-09-30T07:13:56;19.15;;;9.60;;
76035;SDS011;64732;56.314;44.068;2023-09-30T07:16:18;19.35;;;9.88;;
76035;SDS011;64732;56.314;44.068;2023-09-30T07:18:39;16.42;;;9.45;;
76035;SDS011;64732;56.314;44.068;2023-09-30T07:21:00;18.02;;;9.27;;
76035;SDS011;64732;56.314;44.068;2023-09-30T07:23:23;22.98;;;9.63;;
76035;SDS011;64732;56.314;44.068;2023-09-30T07:25:50;20.27;;;9.45;;
76035;SDS011;64732;56.314;44.068;2023-09-30T07:28:11;17.63;;;9.45;;
76035;SDS011;64732;56.314;44.068;2023-09-30T07:30:32;18.67;;;9.73;;
76035;SDS011;64732;56.314;44.068;2023-09-30T07:32:54;15.30;;;9.07;;
76035;SDS011;64732;56.314;44.068;2023-09-30T07:35:16;21.10;;;10.73;;
76035;SDS011;64732;56.314;44.068;2023-09-30T07:37:39;18.48;;;10.10;;
76035;SDS011;64732;56.314;44.068;2023-09-30T07:40:00;25.17;;;12.05;;
76035;SDS011;64732;56.314;44.068;2023-09-30T07:42:27;15.40;;;9.60;;
76035;SDS011;64732;56.314;44.068;2023-09-30T07:44:48;14.93;;;9.02;;
76035;SDS011;64732;56.314;44.068;2023-09-30T07:47:14;14.95;;;8.48;;
76035;SDS011;64732;56.314;44.068;2023-09-30T07:49:39;20.45;;;9.18;;
76035;SDS011;64732;56.314;44.068;2023-09-30T07:52:04;22.00;;;9.88;;
76035;SDS011;64732;56.314;44.068;2023-09-30T07:54:29;21.77;;;10.25;;
76035;SDS011;64732;56.314;44.068;2023-09-30T07:56:51;21.20;;;8.73;;
76035;SDS011;64732;56.314;44.068;2023-09-30T07:59:14;18.95;;;9.75;;
76035;SDS011;64732;56.314;44.068;2023-09-30T08:01:36;19.65;;;9.63;;
76035;SDS011;64732;56.314;44.068;2023-09-30T08:03:59;17.90;;;9.27;;
76035;SDS011;64732;56.314;44.068;2023-09-30T08:06:20;13.52;;;8.98;;
76035;SDS011;64732;56.314;44.068;2023-09-30T08:08:41;22.83;;;9.80;;
76035;SDS011;64732;56.314;44.068;2023-09-30T08:11:02;18.02;;;9.25;;
76035;SDS011;64732;56.314;44.068;2023-09-30T08:13:23;21.80;;;9.88;;
76035;SDS011;64732;56.314;44.068;2023-09-30T08:15:47;18.33;;;9.57;;
76035;SDS011;64732;56.314;44.068;2023-09-30T08:18:08;20.70;;;9.82;;
76035;SDS011;64732;56.314;44.068;2023-09-30T08:20:29;17.65;;;9.57;;
76035;SDS011;64732;56.314;44.068;2023-09-30T08:22:50;17.17;;;10.25;;
76035;SDS011;64732;56.314;44.068;2023-09-30T08:25:11;18.00;;;9.82;;
76035;SDS011;64732;56.314;44.068;2023-09-30T08:27:32;20.55;;;10.63;;
76035;SDS011;64732;56.314;44.068;2023-09-30T08:29:53;19.13;;;9.82;;
76035;SDS011;64732;56.314;44.068;2023-09-30T08:32:17;17.85;;;9.85;;
76035;SDS011;64732;56.314;44.068;2023-09-30T08:34:38;19.45;;;9.15;;
76035;SDS011;64732;56.314;44.068;2023-09-30T08:36:59;24.20;;;9.57;;
76035;SDS011;64732;56.314;44.068;2023-09-30T08:39:20;16.60;;;9.25;;
76035;SDS011;64732;56.314;44.068;2023-09-30T08:41:41;17.48;;;8.65;;
76035;SDS011;64732;56.314;44.068;2023-09-30T08:44:02;19.30;;;8.18;;
76035;SDS011;64732;56.314;44.068;2023-09-30T08:46:24;19.45;;;9.38;;
76035;SDS011;64732;56.314;44.068;2023-09-30T08:48:51;15.73;;;8.02;;
76035;SDS011;64732;56.314;44.068;2023-09-30T08:51:13;15.57;;;7.93;;
76035;SDS011;64732;56.314;44.068;2023-09-30T08:53:34;19.38;;;8.85;;
76035;SDS011;64732;56.314;44.068;2023-09-30T08:55:56;17.30;;;8.32;;
76035;SDS011;64732;56.314;44.068;2023-09-30T08:58:17;21.10;;;9.05;;
76035;SDS011;64732;56.314;44.068;2023-09-30T09:00:40;15.38;;;8.15;;
76035;SDS011;64732;56.314;44.068;2023-09-30T09:03:05;16.52;;;7.75;;
76035;SDS011;64732;56.314;44.068;2023-09-30T09:05:30;17.20;;;7.57;;
76035;SDS011;64732;56.314;44.068;2023-09-30T09:07:51;17.55;;;7.60;;
76035;SDS011;64732;56.314;44.068;2023-09-30T09:10:13;16.55;;;7.72;;
76035;SDS011;64732;56.314;44.068;2023-09-30T09:12:35;19.25;;;8.15;;
76035;SDS011;64732;56.314;44.068;2023-09-30T09:14:57;22.15;;;7.40;;
76035;SDS011;64732;56.314;44.068;2023-09-30T09:17:18;15.40;;;7.25;;
76035;SDS011;64732;56.314;44.068;2023-09-30T09:19:40;14.25;;;7.35;;
76035;SDS011;64732;56.314;44.068;2023-09-30T09:22:04;16.88;;;8.35;;
76035;SDS011;64732;56.314;44.068;2023-09-30T09:24:26;15.48;;;7.43;;
76035;SDS011;64732;56.314;44.068;2023-09-30T09:26:48;13.93;;;7.18;;
76035;SDS011;64732;56.314;44.068;2023-09-30T09:29:11;17.52;;;8.65;;
76035;SDS011;64732;56.314;44.068;2023-09-30T09:31:35;16.88;;;8.25;;
76035;SDS011;64732;56.314;44.068;2023-09-30T09:34:00;14.32;;;7.40;;
76035;SDS011;64732;56.314;44.068;2023-09-30T09:36:40;14.98;;;7.80;;
76035;SDS011;64732;56.314;44.068;2023-09-30T09:39:07;16.55;;;7.85;;
76035;SDS011;64732;56.314;44.068;2023-09-30T09:41:29;17.63;;;7.53;;
76035;SDS011;64732;56.314;44.068;2023-09-30T09:43:51;15.73;;;7.57;;
76035;SDS011;64732;56.314;44.068;2023-09-30T09:46:12;14.32;;;7.43;;
76035;SDS011;64732;56.314;44.068;2023-09-30T09:48:34;15.98;;;8.20;;
76035;SDS011;64732;56.314;44.068;2023-09-30T09:50:58;10.18;;;4.80;;
76035;SDS011;64732;56.314;44.068;2023-09-30T09:53:20;10.65;;;6.55;;
76035;SDS011;64732;56.314;44.068;2023-09-30T09:55:50;12.20;;;6.25;;
76035;SDS011;64732;56.314;44.068;2023-09-30T09:58:13;16.48;;;6.78;;
76035;SDS011;64732;56.314;44.068;2023-09-30T10:00:35;12.10;;;6.20;;
76035;SDS011;64732;56.314;44.068;2023-09-30T10:03:01;13.07;;;6.45;;
76035;SDS011;64732;56.314;44.068;2023-09-30T10:05:24;13.27;;;6.78;;
76035;SDS011;64732;56.314;44.068;2023-09-30T10:07:48;15.63;;;6.32;;
76035;SDS011;64732;56.314;44.068;2023-09-30T10:10:13;14.93;;;6.82;;
76035;SDS011;64732;56.314;44.068;2023-09-30T10:12:39;13.98;;;7.20;;
76035;SDS011;64732;56.314;44.068;2023-09-30T10:18:03;15.80;;;7.43;;
76035;SDS011;64732;56.314;44.068;2023-09-30T10:20:27;14.35;;;7.40;;
76035;SDS011;64732;56.314;44.068;2023-09-30T10:23:07;12.68;;;7.30;;
76035;SDS011;64732;56.314;44.068;2023-09-30T10:25:39;14.00;;;7.00;;
76035;SDS011;64732;56.314;44.068;2023-09-30T10:31:17;14.18;;;7.72;;
76035;SDS011;64732;56.314;44.068;2023-09-30T10:36:41;12.20;;;6.10;;
76035;SDS011;64732;56.314;44.068;2023-09-30T10:39:03;11.38;;;6.50;;
76035;SDS011;64732;56.314;44.068;2023-09-30T10:46:59;12.13;;;6.25;;
76035;SDS011;64732;56.314;44.068;2023-09-30T10:49:30;14.70;;;6.25;;
76035;SDS011;64732;56.314;44.068;2023-09-30T10:51:52;15.50;;;6.50;;
76035;SDS011;64732;56.314;44.068;2023-09-30T10:54:14;11.38;;;6.22;;
76035;SDS011;64732;56.314;44.068;2023-09-30T10:56:39;13.93;;;6.63;;
76035;SDS011;64732;56.314;44.068;2023-09-30T10:59:03;8.50;;;5.18;;
76035;SDS011;64732;56.314;44.068;2023-09-30T11:01:32;12.55;;;6.00;;
76035;SDS011;64732;56.314;44.068;2023-09-30T11:03:58;13.80;;;6.45;;
76035;SDS011;64732;56.314;44.068;2023-09-30T11:06:21;12.93;;;6.45;;
76035;SDS011;64732;56.314;44.068;2023-09-30T11:08:45;12.15;;;6.35;;
76035;SDS011;64732;56.314;44.068;2023-09-30T11:11:12;12.15;;;6.13;;
76035;SDS011;64732;56.314;44.068;2023-09-30T11:13:49;11.90;;;6.20;;
76035;SDS011;64732;56.314;44.068;2023-09-30T11:16:11;13.32;;;6.95;;
76035;SDS011;64732;56.314;44.068;2023-09-30T11:18:36;11.85;;;6.32;;
76035;SDS011;64732;56.314;44.068;2023-09-30T11:21:05;11.75;;;7.00;;
76035;SDS011;64732;56.314;44.068;2023-09-30T11:23:35;15.85;;;7.55;;
76035;SDS011;64732;56.314;44.068;2023-09-30T11:25:59;16.77;;;6.70;;
76035;SDS011;64732;56.314;44.068;2023-09-30T11:28:24;13.18;;;6.78;;
76035;SDS011;64732;56.314;44.068;2023-09-30T11:30:58;16.52;;;6.93;;
76035;SDS011;64732;56.314;44.068;2023-09-30T11:33:25;15.80;;;8.25;;
76035;SDS011;64732;56.314;44.068;2023-09-30T11:36:04;13.00;;;6.43;;
76035;SDS011;64732;56.314;44.068;2023-09-30T11:38:27;12.80;;;5.93;;
76035;SDS011;64732;56.314;44.068;2023-09-30T11:41:00;16.48;;;7.22;;
76035;SDS011;64732;56.314;44.068;2023-09-30T11:43:28;11.60;;;6.22;;
76035;SDS011;64732;56.314;44.068;2023-09-30T11:46:03;11.55;;;7.13;;
76035;SDS011;64732;56.314;44.068;2023-09-30T11:48:27;13.43;;;6.63;;
76035;SDS011;64732;56.314;44.068;2023-09-30T11:50:51;21.48;;;7.03;;
76035;SDS011;64732;56.314;44.068;2023-09-30T11:53:19;12.30;;;6.47;;
76035;SDS011;64732;56.314;44.068;2023-09-30T11:55:43;14.05;;;6.72;;
76035;SDS011;64732;56.314;44.068;2023-09-30T11:58:06;14.07;;;7.57;;
76035;SDS011;64732;56.314;44.068;2023-09-30T12:00:38;13.57;;;7.65;;
76035;SDS011;64732;56.314;44.068;2023-09-30T12:03:06;11.90;;;6.63;;
76035;SDS011;64732;56.314;44.068;2023-09-30T12:05:33;13.43;;;6.93;;
76035;SDS011;64732;56.314;44.068;2023-09-30T12:07:55;13.00;;;6.00;;
76035;SDS011;64732;56.314;44.068;2023-09-30T12:10:22;14.55;;;6.80;;
76035;SDS011;64732;56.314;44.068;2023-09-30T12:12:44;11.55;;;6.28;;
76035;SDS011;64732;56.314;44.068;2023-09-30T12:15:06;15.95;;;5.90;;
76035;SDS011;64732;56.314;44.068;2023-09-30T12:17:36;14.13;;;5.80;;
76035;SDS011;64732;56.314;44.068;2023-09-30T12:19:58;16.17;;;6.53;;
76035;SDS011;64732;56.314;44.068;2023-09-30T12:22:26;11.90;;;7.03;;
76035;SDS011;64732;56.314;44.068;2023-09-30T12:24:47;13.32;;;6.90;;
76035;SDS011;64732;56.314;44.068;2023-09-30T12:27:13;12.95;;;6.63;;
76035;SDS011;64732;56.314;44.068;2023-09-30T12:29:35;12.18;;;6.13;;
76035;SDS011;64732;56.314;44.068;2023-09-30T12:32:00;26.20;;;8.63;;
76035;SDS011;64732;56.314;44.068;2023-09-30T12:34:21;16.83;;;7.72;;
76035;SDS011;64732;56.314;44.068;2023-09-30T12:36:45;15.73;;;8.13;;
76035;SDS011;64732;56.314;44.068;2023-09-30T12:39:15;17.55;;;7.07;;
76035;SDS011;64732;56.314;44.068;2023-09-30T12:41:36;17.23;;;7.22;;
76035;SDS011;64732;56.314;44.068;2023-09-30T12:44:01;16.40;;;7.68;;
76035;SDS011;64732;56.314;44.068;2023-09-30T12:46:29;14.63;;;7.03;;
76035;SDS011;64732;56.314;44.068;2023-09-30T12:48:52;17.02;;;7.53;;
76035;SDS011;64732;56.314;44.068;2023-09-30T12:51:14;11.57;;;6.85;;
76035;SDS011;64732;56.314;44.068;2023-09-30T12:53:36;12.50;;;6.82;;
76035;SDS011;64732;56.314;44.068;2023-09-30T12:55:58;15.70;;;6.72;;
76035;SDS011;64732;56.314;44.068;2023-09-30T12:58:20;14.52;;;6.40;;
76035;SDS011;64732;56.314;44.068;2023-09-30T13:00:47;14.57;;;7.40;;
76035;SDS011;64732;56.314;44.068;2023-09-30T13:03:17;14.52;;;8.18;;
76035;SDS011;64732;56.314;44.068;2023-09-30T13:05:41;16.17;;;7.80;;
76035;SDS011;64732;56.314;44.068;2023-09-30T13:08:05;17.13;;;8.38;;
76035;SDS011;64732;56.314;44.068;2023-09-30T13:10:30;17.65;;;9.93;;
76035;SDS011;64732;56.314;44.068;2023-09-30T13:12:55;16.02;;;7.93;;
76035;SDS011;64732;56.314;44.068;2023-09-30T13:15:16;16.35;;;8.95;;
76035;SDS011;64732;56.314;44.068;2023-09-30T13:17:42;22.05;;;10.93;;
76035;SDS011;64732;56.314;44.068;2023-09-30T13:20:08;23.40;;;13.35;;
76035;SDS011;64732;56.314;44.068;2023-09-30T13:22:33;24.13;;;9.65;;
76035;SDS011;64732;56.314;44.068;2023-09-30T13:24:56;18.25;;;9.05;;
76035;SDS011;64732;56.314;44.068;2023-09-30T13:27:18;15.75;;;8.68;;
76035;SDS011;64732;56.314;44.068;2023-09-30T13:29:40;17.92;;;8.60;;
76035;SDS011;64732;56.314;44.068;2023-09-30T13:32:03;16.95;;;8.30;;
76035;SDS011;64732;56.314;44.068;2023-09-30T13:34:27;22.60;;;7.78;;
76035;SDS011;64732;56.314;44.068;2023-09-30T13:36:52;19.58;;;9.05;;
76035;SDS011;64732;56.314;44.068;2023-09-30T13:39:14;17.98;;;8.40;;
76035;SDS011;64732;56.314;44.068;2023-09-30T13:41:43;17.05;;;8.48;;
76035;SDS011;64732;56.314;44.068;2023-09-30T13:44:06;13.93;;;7.30;;
76035;SDS011;64732;56.314;44.068;2023-09-30T13:46:28;18.20;;;7.93;;
76035;SDS011;64732;56.314;44.068;2023-09-30T13:48:50;15.98;;;7.40;;
76035;SDS011;64732;56.314;44.068;2023-09-30T13:51:16;16.23;;;7.88;;
76035;SDS011;64732;56.314;44.068;2023-09-30T13:53:37;15.18;;;8.25;;
76035;SDS011;64732;56.314;44.068;2023-09-30T13:56:07;18.45;;;9.48;;
76035;SDS011;64732;56.314;44.068;2023-09-30T13:58:32;23.30;;;10.35;;
76035;SDS011;64732;56.314;44.068;2023-09-30T14:00:54;18.58;;;9.40;;
76035;SDS011;64732;56.314;44.068;2023-09-30T14:03:18;21.23;;;9.40;;
76035;SDS011;64732;56.314;44.068;2023-09-30T14:05:57;16.15;;;8.95;;
76035;SDS011;64732;56.314;44.068;2023-09-30T14:08:22;15.82;;;8.65;;
76035;SDS011;64732;56.314;44.068;2023-09-30T14:10:43;19.23;;;9.02;;